Quarter Marathon

Flashpoint Race Timing Results
Place Bib Name Age Group Total Time
1 562 STEPHEN HOLLANDER 1 TOP AG 49:56.02
2 639 RANDALL WOODRUFF 2 TOP AG 51:07.71
3 320 ANDREW HART 3 TOP AG 55:38.56
4 526 CYNDI DEVERS 4 TOP AG 56:33.68
5 555 LISA HESS 5 TOP AG 58:46.56
6 1330 ANNA MILLER 6 TOP AG 1:00:13.05
7 528 JERRY DOYLE 1 M 40-49 1:00:38.97
8 540 CHRISTIAN GEARY 1 M 0-17 1:00:58.83
9 578 CARMEL LEWIS 1 F 40-49 1:01:12.73
10 541 DAVID GEESLIN 1 M 50-59 1:01:13.35
11 634 JASON WIESMANN 1 M 30-39 1:03:57.89
12 585 KEVIN MCANDREWS 2 M 50-59 1:05:26.96
13 597 SUSAN PINNICK 1 F 30-39 1:05:32.13
14 514 JON CARTER 1 M 25-29 1:05:32.76
15 626 STEPHANIE WARE 2 F 40-49 1:06:48.91
16 481 JEFF WHEELER 2 M 30-39 1:07:50.36
17 539 CARA GEARY 3 F 40-49 1:07:54.55
18 503 YIORGOS BEREVESKOS 2 M 0-17 1:08:30.33
19 279 IAN DENU 3 M 30-39 1:08:55.79
20 233 JAYME BROSMER 2 F 30-39 1:09:30.18
21 510 REBECCA BUENING 4 F 40-49 1:10:09.03
22 563 JILL HOLTSCLAW 3 F 30-39 1:10:29.87
23 512 MATTHEW CAMPBELL 2 M 40-49 1:10:57.40
24 536 DEREK FRENCH 3 M 40-49 1:11:17.37
25 535 JOSHUA FORBES 4 M 30-39 1:11:23.85
26 566 DOUGLAS INGLE 4 M 40-49 1:11:43.02
27 530 LAUREN EAST 1 F 18-24 1:12:35.07
28 527 PRISCILLA DEW 4 F 30-39 1:14:30.16
29 385 ELKE MIOT 5 F 40-49 1:14:43.22
30 598 MARY PLOVICH 5 F 30-39 1:14:48.72
31 524 ADAM DEKEMPER 5 M 30-39 1:14:53.46
32 611 BRUCE SCOTT 3 M 50-59 1:15:01.37
33 602 TODD RHOADES 4 M 50-59 1:15:23.12
34 603 TORRIE RHOADES 2 F 18-24 1:15:23.12
35 280 AUDREY DENU 6 F 30-39 1:15:43.03
36 534 JENNIFER FINEFIELD 7 F 30-39 1:16:45.28
37 537 PEARL FRENCH 6 F 40-49 1:17:00.45
38 557 NEDRA HIDAY 1 F 60-UP 1:17:42.09
39 523 CARRIE COUTANT 7 F 40-49 1:17:46.17
40 633 KRYSTI WIDAU 8 F 30-39 1:17:47.45
41 513 MEGAN CARFIELD 1 F 25-29 1:18:32.54
42 500 NICOLE BAILEY 9 F 30-39 1:18:45.57
43 622 JEFF HARTMAN 5 M 40-49 1:19:24.02
44 238 MEGAN CANTRELL 3 F 18-24 1:19:27.41
45 549 LORI HAYNES 2 F 25-29 1:19:33.07
46 289 ROGER ELKINS 5 M 50-59 1:19:42.22
47 617 YINGYI TAN 8 F 40-49 1:20:04.62
48 525 BRIAN DEVERS 6 M 40-49 1:21:26.53
49 508 KIMBERLY BROWN 10 F 30-39 1:21:26.88
50 608 ANDREW SCHLOOT 7 M 40-49 1:21:58.58
51 529 KRISTA DREW 11 F 30-39 1:23:30.52
52 609 SHERRY SCHNELL 9 F 40-49 1:23:31.07
53 545 SHAWN GRAF 8 M 40-49 1:25:31.08
54 610 LAUREN SCHUMAN 12 F 30-39 1:25:46.70
55 517 ANGELA COLE 1 F 50-59 1:25:53.43
56 636 KEVIN WILDMAN 6 M 30-39 1:26:09.48
57 553 BEATE HENSCHEL 13 F 30-39 1:27:17.43
58 230 GERI BRISKEY 2 F 50-59 1:27:34.14
59 302 ANNETTE GENTRUP 10 F 40-49 1:27:34.19
60 596 KARLA PEYTON 11 F 40-49 1:28:26.47
61 641 PHYLLIS ZANORIA 14 F 30-39 1:28:48.58
62 329 APRIL HICKS 3 F 50-59 1:29:23.64
63 327 ASHLEY HENDERSON 15 F 30-39 1:29:47.73
64 565 AMY HUNTER 4 F 50-59 1:29:47.88
65 586 LYNNE MCCRANOR 5 F 50-59 1:30:16.32
66 620 JOYCE THURMAN 6 F 50-59 1:30:17.17
67 501 TRACY BARNHART 7 F 50-59 1:30:18.61
68 577 KEVIN LAMBERT 1 M 18-24 1:31:21.42
69 579 MARK LEWIS 7 M 30-39 1:31:50.04
70 591 SARAH MITCHELL 3 F 25-29 1:31:50.97
71 571 SPENSER JOHNSON 4 F 18-24 1:31:51.19
72 628 JEREMIAH WEAN 9 M 40-49 1:33:03.75
73 627 HEATHER WATTS 12 F 40-49 1:34:12.52
74 544 JENNIFER GRAF 13 F 40-49 1:36:13.83
75 605 ABBY ROBINSON 16 F 30-39 1:36:56.37
76 561 LAUREN HOLBROOK 17 F 30-39 1:36:56.42
77 581 PENNY LONG 8 F 50-59 1:39:00.41
78 587 JASMINE MCDONALD 14 F 40-49 1:40:07.55
79 296 JOSHUA FOSTER 2 M 25-29 1:40:51.82
80 394 BROOKE NEWMAN 4 F 25-29 1:41:16.42
81 613 GREG SMITH 1 M 60-UP 1:42:18.65
82 380 EMMANUEL MERCHIERS 10 M 40-49 1:44:25.67
83 589 CAROL MERCHIERS 15 F 40-49 1:44:27.13
84 504 MIRANDA BILODEAU 5 F 18-24 1:45:07.63
85 592 DANA MOLSKNESS 16 F 40-49 1:45:08.85
86 206 STEPHANIE BAKER 17 F 40-49 1:46:58.12
87 619 CATHY THUERBACH 9 F 50-59 1:47:00.06
88 542 AMANDA GIORDANO 18 F 30-39 1:52:05.95
89 559 WENDY HILL 10 F 50-59 1:52:19.87
90 479 AMY WARREN 19 F 30-39 1:52:24.02
91 519 MELISSA COLEMAN 11 F 50-59 1:58:10.25
92 551 JEFFREY HENDRICKS 6 M 50-59 1:59:49.34
93 572 KRISTI KISSICK 12 F 50-59 2:01:55.88
94 637 BRYNDA WOERNER 13 F 50-59 2:01:57.72
95 518 JEFFREY COLEMAN 7 M 50-59 2:12:36.40
96 550 COURTNEY HENDRICKS 6 F 18-24 2:13:08.73
97 531 AMY EASTON 18 F 40-49 2:13:11.77
98 556 LURILLA HIDAY 2 F 60-UP 2:13:26.11
99 502 LURILLA BEREVESKOS 1 F 0-17 2:13:26.59
100 593 STELLA MOORE 19 F 40-49 2:14:20.31
101 614 ERIC STELLE 11 M 40-49 2:15:29.82
102 520 MELISSA CONARD 20 F 40-49 2:15:30.63
103 595 KELLY ORR 21 F 40-49 2:19:11.66
104 560 HEATHER HOHENBERGER 20 F 30-39 2:47:40.89
105 567 JIM INNIS 8 M 50-59 3:13:42.69
106 568 KAREN INNIS 14 F 50-59 3:13:47.60
107 558 LOLITA HIGHBAUGH 3 F 60-UP 3:21:47.76

Quarter Results

Half Marathon

Flashpoint Race Timing Results
Place Bib Name Age Group Total Time
1 307 RICK GODDARD 1 TOP AG 1:40:54.66
2 471 ANTHONY VRANA 2 TOP AG 1:42:19.16
3 247 JUSTIN CHANDLER 3 TOP AG 1:45:23.20
4 402 SCOTT ORR 1 M 40-49 1:45:44.48
5 297 DAVIS FOX 1 M 18-24 1:47:44.00
6 379 WILLIAM MEGL 2 M 18-24 1:48:50.44
7 414 JIM PAUL 1 M 30-39 1:50:32.42
8 480 KARL WENDEL 2 M 30-39 1:52:05.76
9 242 JOHN CASKEY 3 M 30-39 1:53:40.08
10 76 DEREK RICHEY 4 M 30-39 1:54:50.37
11 360 RIC LARSEN 5 M 30-39 1:56:12.46
12 316 ANTHONY HANSON 6 M 30-39 1:56:12.47
13 369 DAVID LOCK 2 M 40-49 1:56:30.63
14 416 DENISE PFEFFERLE 4 TOP AG 1:57:03.79
15 333 HENRY HOWARD 3 M 40-49 1:57:48.27
16 358 DAVID LABER 7 M 30-39 1:58:43.64
17 485 HAROLD WOODS 1 M 50-59 1:59:07.27
18 343 DAVID KELLEY 2 M 50-59 2:00:12.21
19 386 BRENDA MOECKLY 5 TOP AG 2:01:03.39
20 410 MICHAEL PARKS 3 M 50-59 2:01:05.36
21 6 ROB BEELER 4 M 50-59 2:01:21.90
22 253 CRAIG CLAYTON 4 M 40-49 2:01:43.70
23 489 MICHAEL WURSTER 3 M 18-24 2:01:48.99
24 473 KATIE WADLEY 6 TOP AG 2:03:04.29
25 232 CLINT BROSMER 8 M 30-39 2:04:43.96
26 275 CHLOE DE PERRE 1 F 30-39 2:04:48.79
27 436 ANTHONY SANSONE 4 M 18-24 2:05:16.37
28 227 STEPHEN BRELLENTHIN 9 M 30-39 2:05:20.72
29 422 ANNA RATLIFF 1 F 18-24 2:05:26.56
30 466 MATT UTTERBACK 5 M 40-49 2:06:04.31
31 259 BRETT COOPER 6 M 40-49 2:06:36.35
32 305 JESSIE GIPE 1 F 25-29 2:06:42.65
33 336 JERRY HUGHES 5 M 50-59 2:06:53.16
34 221 KRISTEN BISCHEL 2 F 18-24 2:07:59.00
35 245 CALEB CAVE 5 M 18-24 2:08:12.51
36 397 NICK ONEIL 10 M 30-39 2:08:59.66
37 331 SHANE HILLMAN 7 M 40-49 2:09:09.49
38 301 ZHENHAO GE 11 M 30-39 2:11:44.59
39 472 MICHELLE WADE 1 F 40-49 2:12:33.78
40 60 ELLIOTT MCKENZIE 12 M 30-39 2:12:53.07
41 442 GREG SMITH 8 M 40-49 2:14:21.82
42 486 JACKIE WOODS 3 F 18-24 2:14:23.72
43 468 GARDNER VAN HOOSER 6 M 50-59 2:15:19.99
44 41 EMILY HOOK 4 F 18-24 2:15:47.17
45 352 JAMES KOVACS 7 M 50-59 2:15:57.53
46 276 JONI DEKEMPER 2 F 30-39 2:16:01.41
47 31 BILL GEBHART 9 M 40-49 2:16:57.63
48 435 TODD SALLEE 13 M 30-39 2:16:59.40
49 403 TRACY OWENS 2 F 40-49 2:17:15.25
50 321 JENNA HASE 2 F 25-29 2:17:20.19
51 281 BILL DERRER 8 M 50-59 2:17:42.49
52 254 SCOTT CLORE 10 M 40-49 2:18:23.87
53 237 ANTHONY CAMBISI 14 M 30-39 2:18:42.15
54 324 DAN HAY 11 M 40-49 2:19:24.19
55 395 MATTHEW NORRIS 1 M 25-29 2:20:05.31
56 353 STEPHEN KOZUHOWSKI 2 M 25-29 2:20:24.35
57 255 JAMES COFFEY 3 M 25-29 2:20:51.47
58 494 SARAH HILL 3 F 30-39 2:21:32.52
59 456 DAVID TEMPLETON 12 M 40-49 2:21:56.61
60 388 CHRISTOPHER MULLEN 13 M 40-49 2:22:44.60
61 306 LORI GODDARD 3 F 40-49 2:22:47.53
62 382 BRIAN MEYER 14 M 40-49 2:23:41.57
63 46 PAUL KREINER 6 M 18-24 2:24:10.60
64 338 ROLAND ISAACS 15 M 40-49 2:24:58.61
65 451 LISA STEWART 1 F 50-59 2:25:27.63
66 448 MATT STANSBERRY 16 M 40-49 2:25:29.01
67 252 REBEKAH CLARK 4 F 40-49 2:25:32.78
68 78 TRENA ROUDEBUSH 5 F 40-49 2:26:27.74
69 225 DOUG BOOTH 4 M 25-29 2:26:40.77
70 287 KYLE EGENOLF 5 M 25-29 2:27:17.43
71 478 CONGRONG WANG 2 F 50-59 2:27:31.37
72 447 ROBERT SPENCER 9 M 50-59 2:28:59.19
73 303 BRIAN GENTRUP 17 M 40-49 2:29:16.29
74 308 MASON GONTERMAN 7 M 18-24 2:29:18.24
75 248 SARAH CHRISPELL 5 F 18-24 2:29:18.28
76 309 DAVID GRAVES 15 M 30-39 2:29:34.26
77 484 ALEX WOODS 8 M 18-24 2:30:25.15
78 224 ALLISON BOLEY 3 F 25-29 2:30:44.11
79 318 ROBERT HARLOW JR 10 M 50-59 2:30:48.48
80 218 DEBORAH SWINFORD 1 F 60-UP 2:30:51.90
81 440 MICHELLE SHWERY 3 F 50-59 2:31:00.21
82 332 CONNOR HOLLRAH 9 M 18-24 2:31:00.73
83 449 CHRIS STERRETT 18 M 40-49 2:31:21.55
84 288 MARK ELKINS 16 M 30-39 2:31:26.80
85 445 KELLY SPAULDING 6 F 40-49 2:31:33.28
86 217 BRUCE BEIL 6 M 25-29 2:31:46.11
87 488 KRISTIN WROBLESKI 4 F 30-39 2:31:59.90
88 328 CHRIS HEYLMANN 19 M 40-49 2:32:10.69
89 393 SHANNON NEUMANN 17 M 30-39 2:32:25.14
90 40 JIM HALL 20 M 40-49 2:32:25.98
91 349 JEN KNIFE 7 F 40-49 2:32:43.18
92 453 MARK TABER 11 M 50-59 2:33:37.38
93 28 ELLEN FREEBORN 6 F 18-24 2:34:26.23
94 400 ALEX OPELL 7 M 25-29 2:34:33.03
95 260 JARROD CRADDOCK 18 M 30-39 2:34:55.61
96 261 JASON CRADDOCK 21 M 40-49 2:34:56.03
97 282 SCOTT DEYOE 12 M 50-59 2:35:14.10
98 240 ANDRE CARRASQUILLO 19 M 30-39 2:35:25.29
99 272 CASSIE DAVIDSON 4 F 25-29 2:36:00.80
100 408 DEB PANKOW 5 F 30-39 2:36:19.72
101 294 L.E. EVANS 7 F 18-24 2:36:33.84
102 383 MADELINE MEYERS 8 F 18-24 2:36:57.94
103 339 JERRI JENSEN 8 F 40-49 2:37:26.26
104 342 ANGIE JONES 9 F 40-49 2:37:49.77
105 390 MINDY MUSKA 10 F 40-49 2:37:57.65
106 389 CHRIS MUSKA 22 M 40-49 2:37:57.87
107 487 LIZ WOODS 4 F 50-59 2:38:01.72
108 430 ALYSSA ROOKE 9 F 18-24 2:38:57.70
109 406 ROB PALMER 13 M 50-59 2:39:00.37
110 405 JESSICA PALMER 10 F 18-24 2:39:01.18
111 401 RYAN OPELL 8 M 25-29 2:39:06.62
112 490 DAN XU 5 F 25-29 2:39:23.19
113 317 BILL HARLOW 14 M 50-59 2:39:52.93
114 205 ZACHARY BAILEY 9 M 25-29 2:39:54.79
115 291 KARA ELLIOTT 11 F 40-49 2:39:57.73
116 313 KLOEE GRIZZEL 1 F 0-17 2:39:58.03
117 330 LISA HIDAY 5 F 50-59 2:40:16.99
118 244 VICTORIA CAVALLONE 11 F 18-24 2:41:05.01
119 246 CURT CHAMBERS 15 M 50-59 2:42:02.81
120 612 KATHERINE SIMS 6 F 30-39 2:42:25.35
121 425 CHRISTINA REYNOLDS GRISBY 12 F 40-49 2:42:56.81
122 236 RICHARD BUTLER 23 M 40-49 2:43:03.55
123 423 JASON RECKELHOFF 20 M 30-39 2:43:52.49
124 223 AMY BLAIR 7 F 30-39 2:43:52.56
125 374 JIM MCDERMOTT 16 M 50-59 2:44:01.71
126 375 SUSAN MCDERMOTT 6 F 50-59 2:44:02.83
127 483 SCOTT WOLTING 24 M 40-49 2:44:16.35
128 392 KRISTIN NELESSEN 6 F 25-29 2:44:20.86
129 213 STEPHEN BARTLETT 17 M 50-59 2:44:30.30
130 419 VASU POLU 25 M 40-49 2:45:10.93
131 516 ANDREA SHILLING 7 F 25-29 2:46:34.68
132 286 TIMOTHY DYKEMA 26 M 40-49 2:46:39.61
133 243 LAUREN CASKEY 13 F 40-49 2:47:02.23
134 467 JAN PAUL VALLEJO 27 M 40-49 2:47:13.82
135 438 ALEX SEXTON 10 M 25-29 2:48:40.46
136 56 JEREMY MANN 21 M 30-39 2:48:48.73
137 462 BENJAMIN TROXEL 22 M 30-39 2:49:10.76
138 290 JIM ELLIOTT 28 M 40-49 2:49:11.43
139 334 ADRIAN HOWKINSON 12 F 18-24 2:49:34.68
140 312 LINDSAY GRESHAM 8 F 25-29 2:49:35.17
141 630 COLLEEN WERKLEY 8 F 30-39 2:50:25.91
142 463 JILL TRUAX 14 F 40-49 2:50:29.73
143 201 GAIL AMBROSE 15 F 40-49 2:53:02.24
144 415 ARIELLE PECHETTE MARKLEY 9 F 30-39 2:53:20.63
145 396 KYLEE NOWLING 2 F 0-17 2:53:23.59
146 325 LINDSAY HEHMAN 10 F 30-39 2:53:55.85
147 270 LARRY DARLING 23 M 30-39 2:55:19.56
148 310 ERIC GRAY 24 M 30-39 2:55:44.54
149 222 KAYLA BLACKFORD 9 F 25-29 2:57:36.46
150 326 HALEY HEITZMAN 3 F 0-17 2:57:55.80
151 298 JONATHAN FRASER 29 M 40-49 2:57:58.75
152 269 ANNE DARE 11 F 30-39 2:58:24.69
153 344 MICHAEL KEMPLE 1 M 60-UP 2:58:50.19
154 345 EMILY KENNEDY 12 F 30-39 2:59:02.96
155 266 BERONICA CRUZ HAMILL 16 F 40-49 2:59:11.78
156 293 ALICIA ESTES 13 F 18-24 2:59:34.07
157 239 KRISTINA CARR 10 F 25-29 3:00:22.67
158 75 ERICA REYENGA 13 F 30-39 3:01:16.44
159 250 SUSAN CHRISTOPHER 7 F 50-59 3:01:20.98
160 87 ESTHER SLABACH 14 F 30-39 3:03:03.32
161 235 DAVID BUDDENDECK 18 M 50-59 3:03:46.01
162 283 SUBRAMANIAN DHARMARAJAN 11 M 25-29 3:03:53.68
163 446 GLADYS SPENCER 17 F 40-49 3:03:57.01
164 84 CASEY SEYFRIED 25 M 30-39 3:04:18.14
165 7 JODI BELL 11 F 25-29 3:04:34.93
166 53 ARIELLE LYONS 12 F 25-29 3:04:35.49
167 12 MEREDITH BUCHER 13 F 25-29 3:04:37.36
168 64 ANNE MORRIS 8 F 50-59 3:06:08.70
169 209 BRILYN BANISTER 14 F 18-24 3:06:59.10
170 457 BRIAN TERRELL 30 M 40-49 3:06:59.35
171 315 VICTORIA HALL 18 F 40-49 3:07:05.40
172 268 AMY DALTON 19 F 40-49 3:07:11.49
173 364 MICHELE LEWIS 20 F 40-49 3:07:24.00
174 355 CHANDRA ROSE 15 F 18-24 3:07:36.88
175 356 JOSHUA KRIESE 12 M 25-29 3:07:37.07
176 421 ARVIND RAMACHANDRAN 31 M 40-49 3:07:48.57
177 300 JESSICA FURREY 15 F 30-39 3:07:57.76
178 444 TERENCE SNOEBERGER 19 M 50-59 3:08:43.39
179 391 KOTESWAR MYNENI 32 M 40-49 3:10:21.92
180 285 MICHELLE DRASCHIL 16 F 30-39 3:10:32.87
181 299 FRANK FULTS 2 M 60-UP 3:10:57.74
182 3 LORIE ARNOLD 9 F 50-59 3:11:12.31
183 429 MEGAN ROGG 14 F 25-29 3:11:15.40
184 277 JOAN DEMEYER 21 F 40-49 3:11:49.89
185 274 STEPHANIE DAVIS 17 F 30-39 3:12:47.70
186 482 SAMANTHA WOLFE 16 F 18-24 3:15:31.63
187 378 AARON MCRILL 33 M 40-49 3:15:31.81
188 359 KIM LANGHORNE 22 F 40-49 3:15:42.12
189 427 JES RITTMEYER 18 F 30-39 3:15:46.10
190 493 SHANI ZUCKER 10 F 50-59 3:16:07.46
191 458 PATTI TERRELL 23 F 40-49 3:16:22.66
192 265 JANET CROSS 11 F 50-59 3:17:57.85
193 368 KYLE LITTEL 13 M 25-29 3:18:08.74
194 404 MORGAN PALLOTTA 15 F 25-29 3:20:09.61
195 367 CASSIE LITTEL 16 F 25-29 3:20:23.78
196 203 LEANDRA BABER 17 F 25-29 3:20:26.76
197 204 SUE BABER 12 F 50-59 3:20:26.79
198 211 BRANDI JO BARNES 19 F 30-39 3:22:34.75
199 322 LAURANNE HAUCK 20 F 30-39 3:22:34.98
200 350 RANA KORY 24 F 40-49 3:22:39.45
201 234 DARRELL BRUMFIELD 20 M 50-59 3:22:39.89
202 377 PAUL MCMURRAY 26 M 30-39 3:25:33.66
203 376 ERIN MCMURRAY 21 F 30-39 3:25:34.11
204 304 JOSHUA GIPE 14 M 25-29 3:25:38.67
205 323 ALAINA HAWLEY 18 F 25-29 3:27:25.22
206 434 BETH SALLEE 22 F 30-39 3:28:37.92
207 202 ANNE AYMOND 23 F 30-39 3:28:38.02
208 210 SARAH BANK 24 F 30-39 3:28:41.36
209 465 ALYSSA UNGER 17 F 18-24 3:30:54.72
210 464 ALEXIS UNGER 18 F 18-24 3:30:54.77
211 399 SERGIO OGURA 21 M 50-59 3:32:59.96
212 264 DOUG CROSS 22 M 50-59 3:33:41.44
213 200 AMY ACTON 19 F 18-24 3:35:52.50
214 361 ALLISON LEER 13 F 50-59 3:36:45.82
215 340 JENNA JOHNSON 19 F 25-29 3:36:53.15
216 420 CHELSEA POWERS 20 F 18-24 3:38:02.38
217 256 ROXANA COLON 25 F 40-49 3:39:42.87
218 207 SERENITY BALDAUF 25 F 30-39 3:43:37.64
219 319 DIANA HARRIS 26 F 30-39 3:43:37.73
220 477 BETSY WALL 27 F 30-39 3:43:41.25
221 443 TERRI SMITH-WRIGHT 14 F 50-59 3:46:04.72
222 363 MARY LEWIS 28 F 30-39 3:47:16.97
223 29 PENNY FREY 15 F 50-59 3:49:09.81
224 1 TERESA ALGREEN 16 F 50-59 3:49:10.29
225 431 MONICA ROOSE 29 F 30-39 3:49:34.35
226 271 JEFF DAVENPORT 23 M 50-59 3:53:51.61
227 426 DANIELLE RHYMER 20 F 25-29 4:01:12.30
228 407 TARA PALMER 21 F 25-29 4:01:12.49
229 474 BRENDA WALKER 17 F 50-59 4:02:28.42
230 347 KARI ANN KINKEY 26 F 40-49 4:02:28.43
231 475 ERIN WALKER 21 F 18-24 4:02:28.45
232 314 DE CURTIS GROOMS 34 M 40-49 4:13:21.37
233 267 LAUREN DAVIS 22 F 25-29 4:15:12.07
234 455 ELIZABETH TAYLOR 30 F 30-39 4:38:25.88
235 450 TRISHA STERRETT 31 F 30-39 4:38:28.26
236 215 MICHEL BEATY 32 F 30-39 4:41:25.01
237 341 KATHRYN JOHNSON 33 F 30-39 4:48:19.29
238 295 SANDRA FIELDS 27 F 40-49 4:48:19.32
239 418 DEBORAH PLUMMER 18 F 50-59 4:58:32.20
240 351 DEBRA KOVACS 2 F 60-UP 4:58:33.27
241 412 ANNA PATTERSON 34 F 30-39 4:59:30.96

Half Results

Full Marathon

Flashpoint Race Timing Results
Place Bib Name Age Group First Half Second Half Total Time
1 85 TRAVIS SHIELDS 1 TOP AG 1:46:51.78 1:50:04.03 3:36:55.81
2 61 ALEX MCPHERSON 2 TOP AG 1:50:56.04 1:52:37.87 3:43:33.91
3 96 TOMMY WADELTON 3 TOP AG 1:52:33.59 1:55:32.48 3:48:06.07
4 58 LAUREN MANUEL 4 TOP AG 1:51:00.01 1:58:40.74 3:49:40.75
5 42 DANIEL HOWE 1 M 30-39 1:54:19.56 2:00:31.99 3:54:51.55
6 67 DONALD NAVE 2 M 30-39 1:55:43.90 2:13:27.47 4:09:11.37
7 10 WILLIAM BRUMBACH 3 M 30-39 1:59:56.37 2:27:31.39 4:27:27.76
8 57 JOCELYN MANTZ 5 TOP AG 2:09:33.65 2:21:26.00 4:30:59.65
9 35 STEPHEN GOETZ 1 M 50-59 2:00:52.94 2:30:58.41 4:31:51.35
10 32 JULIE GEBHART 6 TOP AG 2:13:04.76 2:19:52.51 4:32:57.27
11 22 ERIC DAY 2 M 40-49 1:53:05.05 2:44:43.51 4:37:48.56
12 52 KENNETH LYNN 3 M 40-49 2:02:05.28 2:35:47.40 4:37:52.68
13 21 ELVIS! DAHL 4 M 30-39 2:04:53.05 2:33:05.73 4:37:58.78
14 80 CHRISTOPHER RUSSELL 2 M 50-59 2:09:47.71 2:32:28.30 4:42:16.01
15 82 BRODERICK SCHMITZ 1 M 25-29 2:12:52.05 2:30:00.48 4:42:52.53
16 23 BRYAN DEBSHAW 4 M 40-49 2:07:19.18 2:45:45.80 4:53:04.98
17 59 DENTON MCCLINTIC 3 M 50-59 2:20:15.04 2:34:10.55 4:54:25.59
18 14 MATT CANTRELL 5 M 30-39 2:07:46.31 2:46:43.55 4:54:29.86
19 50 WEI LI 4 M 50-59 2:16:54.79 2:44:48.19 5:01:42.98
20 25 GEOFFRY DOWNS 6 M 30-39 2:35:27.71 2:31:02.75 5:06:30.46
21 49 EMILY LEISING 1 F 30-39 2:14:59.72 2:55:50.18 5:10:49.90
22 70 SPENCER OLSEN 5 M 50-59 2:24:55.43 2:46:46.09 5:11:41.52
23 24 SHANNON DECKARD 1 F 25-29 2:25:45.49 2:50:17.83 5:16:03.32
24 33 KATIE GEHRAND 2 F 25-29 2:26:40.79 2:52:12.14 5:18:52.93
25 36 LETICIA GONZALEZ 1 F 40-49 2:23:17.95 2:57:21.13 5:20:39.08
26 47 IMRICH KURIC 5 M 40-49 2:31:31.74 2:52:43.27 5:24:15.01
27 45 RYAN KNOTTS 7 M 30-39 2:07:21.73 3:18:42.28 5:26:04.01
28 44 PETER KIRKWOOD 8 M 30-39 2:20:01.03 3:06:12.76 5:26:13.79
29 89 GABE SRONCE 1 M 18-24 2:23:17.42 3:03:18.29 5:26:35.71
30 43 ANDREW KENNEDY 2 M 18-24 2:23:17.50 3:03:18.31 5:26:35.81
31 86 DOUGLAS SHIRLEY 9 M 30-39 2:13:36.35 3:13:19.17 5:26:55.52
32 66 MARY NABB 2 F 40-49 2:27:40.59 2:59:24.90 5:27:05.49
33 63 PEDRO MONITA 3 M 18-24 2:05:10.55 3:23:50.67 5:29:01.22
34 83 KAYLA SCHOETTEL 3 F 25-29 2:34:05.92 2:54:57.62 5:29:03.54
35 95 KARIN VAN DEN BROECK 3 F 40-49 2:36:24.92 2:52:58.18 5:29:23.10
36 8 KELLIE BERNARD 4 F 25-29 2:26:45.62 3:02:58.50 5:29:44.12
37 62 DAVID MILLER 6 M 40-49 2:21:34.16 3:10:02.86 5:31:37.02
38 5 JONATHON BAUMANN 10 M 30-39 2:28:43.93 3:07:44.85 5:36:28.78
39 16 RONALD CHAPMAN 11 M 30-39 2:31:34.38 3:05:26.83 5:37:01.21
40 72 RANDY PEOPLES 6 M 50-59 2:33:50.51 3:03:35.26 5:37:25.77
41 19 VICTOR CHRISTOPHER 7 M 40-49 2:20:14.44 3:19:42.64 5:39:57.08
42 74 ANDREW REGAS 2 M 25-29 2:02:07.06 3:37:55.03 5:40:02.09
43 79 ZACH ROZELLE 1 M 60-UP 2:32:13.81 3:11:55.83 5:44:09.64
44 71 CHRIS PALMER 12 M 30-39 2:37:33.04 3:07:57.01 5:45:30.05
45 38 RENEE GUTHRIE 2 F 30-39 2:34:39.37 3:11:30.34 5:46:09.71
46 93 PAUL THOMPSON 13 M 30-39 2:29:07.10 3:19:18.53 5:48:25.63
47 39 THOMAS HAGMAN 8 M 40-49 2:36:10.66 3:12:16.45 5:48:27.11
48 97 JACOB WALDINGER 4 M 18-24 2:16:57.11 3:31:38.94 5:48:36.05
49 68 AMY NGUYEN 4 F 40-49 2:45:29.94 3:07:13.96 5:52:43.90
50 55 PATRICK MANGAN 5 M 18-24 2:39:38.88 3:13:58.62 5:53:37.50
51 54 CATHERINE MANGAN 5 F 25-29 2:39:39.63 3:13:59.02 5:53:38.65
52 4 SAMANTHA BALDRIDGE 1 F 18-24 2:28:29.74 3:27:53.03 5:56:22.77
53 17 KYRA CHESTER-PAUL 2 F 18-24 2:35:31.18 3:34:22.13 6:09:53.31
54 27 PHILIP EVANS 14 M 30-39 2:26:45.56 3:45:12.46 6:11:58.02
55 92 MARCUS STUTZMAN 3 M 25-29 2:29:28.30 3:42:57.32 6:12:25.62
56 30 JOHN FUHRMANN 7 M 50-59 2:48:33.01 3:23:53.43 6:12:26.44
57 11 PETE BRYANT 9 M 40-49 2:31:36.22 3:42:11.60 6:13:47.82
58 48 RYAN LEE 15 M 30-39 2:37:18.37 3:42:13.05 6:19:31.42
59 13 DAVID CANADA 16 M 30-39 2:35:27.45 3:49:17.74 6:24:45.19
60 34 LAUREN GIN 3 F 18-24 2:45:12.50 3:56:00.36 6:41:12.86
61 26 PAUL EVANS 17 M 30-39 3:03:45.75 3:40:50.42 6:44:36.17
62 9 EUGENE BERRES 2 M 60-UP 3:16:48.63 4:02:17.61 7:19:06.24
63 65 HENDRIK F MULDER 3 M 60-UP 2:52:50.65 4:26:20.78 7:19:11.43
DQ 88 TOBY SOLTERMANN

Full Results